Plum Lake, Wisconsin
Current Conditions -  °F | °C
As of 11:55 AM on Tuesday 21 Oct 2014 (Local Time) from KARV Reporting Station
Overcast Overcast  
Wind Chill: 39°   Ceiling: 1300
Heat Index: 42°   Visibility: 10mi
Dew Point: 36°   Wind: 5mph
Humidity: 79%   Direction: 110°ESE
Pressure: 30.25"   Gusts: NA
Location:  46.0162°N, 89.524°W
Report Text: KARV 211655Z AUTO 11004KT 10SM OVC013 05/02 A3025 RMK AO2 T00530020
Loading
Personal Weather Stations






























Interactive Weather Map
Tropical Storm Tracking
New forecast layout! Learn more

10-Day Weather Forecast

Advertisements
Track Severe Weather on mobile